Friday, November 16, 2018, 2:06 AM GMT
Back to Local

CYQM, Moncton, N. B.

Location: , , Canada Lat: 46.117
Local Time: 2:06 AM GMT ( 2:06 GMT) Lon: -64.683
Time Zone: GMT Elev: 232 ft

Show me the last for .
Show Coded

Time T Td Feel RH Dir Speed Gust Alt SLP Vis Weather Sky Remarks
2018-11-16 01:00 19 12 9 73 250° 9 - 30.40 30.42 15 FEW250 None
2018-11-16 00:00 21 12 11 67 260° 9 - 30.42 30.44 15 FEW250 None
2018-11-15 23:00 21 12 11 67 240° 9 - 30.43 30.45 15 FEW250 None
2018-11-15 22:00 23 12 13 62 280° 9 - 30.42 30.45 15 FEW220 BKN250 Pressure falling rapidly
2018-11-15 21:00 23 12 12 62 260° 12 - 30.42 30.44 15 FEW220 BKN250 None
2018-11-15 20:00 25 10 16 53 260° 8 - 30.39 30.41 15 FEW025 FEW220 BKN250 None
2018-11-15 19:00 25 9 15 49 300° 9 - 30.38 30.40 15 FEW025 BKN220 BKN270 None
2018-11-15 18:00 25 10 15 53 300° 9 - 30.37 30.39 15 FEW025 SCT240 None
2018-11-15 17:00 25 10 13 53 330° 14 - 30.36 30.37 15 FEW025 FEW240 None
2018-11-15 16:00 23 10 9 57 310° 12 18 30.39 30.40 15 FEW025 FEW240 None
2018-11-15 15:00 21 9 8 57 280° 14 - 30.40 30.42 15 FEW020 FEW240 None
2018-11-15 14:00 18 9 4 67 280° 14 - 30.40 30.42 15 FEW022 FEW240 None
2018-11-15 13:00 16 9 0 72 260° 16 - 30.41 30.43 15 FEW020 FEW240 None
2018-11-15 12:00 14 7 -5 72 260° 15 25 30.39 30.41 15 FEW020 None
2018-11-15 11:00 14 7 -3 72 270° 18 - 30.36 30.38 15 FEW020 None
2018-11-15 10:00 14 7 -4 72 270° 16 22 30.35 30.37 15 CLR None
2018-11-15 09:00 16 7 -4 66 280° 17 28 30.30 30.32 15 CLR None
2018-11-15 08:00 16 9 -3 72 270° 16 24 30.25 30.27 14 CLR None
2018-11-15 07:00 14 9 -6 78 260° 22 28 30.23 30.25 15 CLR Pressure rising rapidly
2018-11-15 06:00 16 9 -5 72 260° 23 31 30.18 30.20 15 CLR None
2018-11-15 05:00 16 9 -5 72 260° 23 32 30.13 30.15 15 CLR None
2018-11-15 04:00 16 7 -4 66 260° 18 28 30.08 30.10 15 CLR None
2018-11-15 03:00 16 7 -4 66 260° 22 30 30.06 30.08 15 CLR None

Support USWX by starting your Amazon purchase here.